createdAt,value
2018-07-07T00:00:23.529Z,8.30
2018-07-07T00:02:52.034Z,9.17
2018-07-07T00:05:21.364Z,8.90
2018-07-07T00:07:49.828Z,7.80
2018-07-07T00:10:18.281Z,10.37
2018-07-07T00:12:46.786Z,9.30
2018-07-07T00:15:17.444Z,9.87
2018-07-07T00:17:46.465Z,9.23
2018-07-07T00:20:15.324Z,9.20
2018-07-07T00:22:43.778Z,8.50
2018-07-07T00:25:13.765Z,10.17
2018-07-07T00:27:42.528Z,8.97
2018-07-07T00:30:10.969Z,8.13
2018-07-07T00:32:39.469Z,9.23
2018-07-07T00:35:08.081Z,8.80
2018-07-07T00:37:36.588Z,8.70
2018-07-07T00:40:05.960Z,7.57
2018-07-07T00:42:34.460Z,8.07
2018-07-07T00:45:02.997Z,7.93
2018-07-07T00:47:31.566Z,7.90
2018-07-07T00:50:00.357Z,7.80
2018-07-07T00:52:28.926Z,8.73
2018-07-07T00:54:57.443Z,6.93
2018-07-07T00:57:25.908Z,7.10
2018-07-07T00:59:54.325Z,8.33
2018-07-07T01:02:23.804Z,9.67
2018-07-07T01:04:53.490Z,7.83
2018-07-07T01:07:22.597Z,7.90
2018-07-07T01:09:51.080Z,8.53
2018-07-07T01:12:19.555Z,7.97
2018-07-07T01:14:48.472Z,8.13
2018-07-07T01:17:16.967Z,8.80
2018-07-07T01:19:45.441Z,10.30
2018-07-07T01:22:14.384Z,7.77
2018-07-07T01:24:43.299Z,9.50
2018-07-07T01:27:11.717Z,9.30
2018-07-07T01:29:41.041Z,7.37
2018-07-07T01:32:09.851Z,8.03
2018-07-07T01:34:38.300Z,8.37
2018-07-07T01:37:06.889Z,7.83
2018-07-07T01:39:35.374Z,8.80
2018-07-07T01:42:03.844Z,8.20
2018-07-07T01:44:32.307Z,9.27
2018-07-07T01:47:00.944Z,8.13
2018-07-07T01:49:29.373Z,8.10
2018-07-07T01:51:57.854Z,8.70
2018-07-07T01:54:26.318Z,7.90
2018-07-07T01:56:54.790Z,7.60
2018-07-07T01:59:23.231Z,8.40
2018-07-07T02:01:51.664Z,6.87
2018-07-07T02:04:20.468Z,6.30
2018-07-07T02:06:48.886Z,6.87
2018-07-07T02:09:17.055Z,7.00
2018-07-07T02:11:45.460Z,5.63
2018-07-07T02:14:14.089Z,6.03
2018-07-07T02:16:42.596Z,7.83
2018-07-07T02:19:11.026Z,7.80
2018-07-07T02:21:39.437Z,7.17
2018-07-07T02:24:07.917Z,7.27
2018-07-07T02:26:36.397Z,7.03
2018-07-07T02:29:04.841Z,7.77
2018-07-07T02:31:33.320Z,6.67
2018-07-07T02:34:01.760Z,6.63
2018-07-07T02:36:30.360Z,6.43
2018-07-07T02:38:58.805Z,6.33
2018-07-07T02:41:27.301Z,7.03
2018-07-07T02:43:55.799Z,6.70
2018-07-07T02:46:24.433Z,5.93
2018-07-07T02:48:52.712Z,5.60
2018-07-07T02:51:21.151Z,6.63
2018-07-07T02:53:49.617Z,6.07
2018-07-07T02:56:18.113Z,6.53
2018-07-07T02:58:46.632Z,6.17
2018-07-07T03:01:15.090Z,6.13
2018-07-07T03:03:43.526Z,7.63
2018-07-07T03:06:11.977Z,6.93
2018-07-07T03:08:40.412Z,8.20
2018-07-07T03:11:08.894Z,6.27
2018-07-07T03:13:37.480Z,7.70
2018-07-07T03:16:06.064Z,7.17
2018-07-07T03:18:34.488Z,6.40
2018-07-07T03:21:02.626Z,6.47
2018-07-07T03:23:31.079Z,6.50
2018-07-07T03:25:59.499Z,6.90
2018-07-07T03:28:28.265Z,6.60
2018-07-07T03:30:56.721Z,6.67
2018-07-07T03:33:25.175Z,7.00
2018-07-07T03:35:53.631Z,6.17
2018-07-07T03:38:22.062Z,5.83
2018-07-07T03:40:50.461Z,6.80
2018-07-07T03:43:18.896Z,6.57
2018-07-07T03:45:47.340Z,5.97
2018-07-07T03:48:15.772Z,6.23
2018-07-07T03:50:44.465Z,6.07
2018-07-07T03:53:12.929Z,6.40
2018-07-07T03:55:41.402Z,7.30
2018-07-07T03:58:09.842Z,5.20
2018-07-07T04:00:38.294Z,6.17
2018-07-07T04:03:06.764Z,5.17
2018-07-07T04:05:35.204Z,5.73
2018-07-07T04:08:03.665Z,7.37
2018-07-07T04:10:31.789Z,5.37
2018-07-07T04:13:00.229Z,5.73
2018-07-07T04:15:28.697Z,5.97
2018-07-07T04:17:57.141Z,6.47
2018-07-07T04:20:25.633Z,6.70
2018-07-07T04:22:54.093Z,6.40
2018-07-07T04:25:22.559Z,6.10
2018-07-07T04:27:50.991Z,6.50
2018-07-07T04:30:19.396Z,6.47
2018-07-07T04:32:47.829Z,6.90
2018-07-07T04:35:16.298Z,7.53
2018-07-07T04:37:44.713Z,7.97
2018-07-07T04:40:13.199Z,7.53
2018-07-07T04:42:41.628Z,8.30
2018-07-07T04:45:10.109Z,7.67
2018-07-07T04:47:38.573Z,8.93
2018-07-07T04:50:07.038Z,8.23
2018-07-07T04:52:35.472Z,8.20
2018-07-07T04:55:04.005Z,8.50
2018-07-07T04:57:32.460Z,7.93
2018-07-07T05:00:00.860Z,8.47
2018-07-07T05:02:29.308Z,8.07
2018-07-07T05:04:57.721Z,8.20
2018-07-07T05:07:26.167Z,7.40
2018-07-07T05:09:54.618Z,7.00
2018-07-07T05:12:23.045Z,6.47
2018-07-07T05:14:51.477Z,6.50
2018-07-07T05:17:19.938Z,6.83
2018-07-07T05:19:48.363Z,6.30
2018-07-07T05:22:16.799Z,7.00
2018-07-07T05:24:45.261Z,6.93
2018-07-07T05:27:13.695Z,5.00
2018-07-07T05:29:42.177Z,7.10
2018-07-07T05:32:10.712Z,7.47
2018-07-07T05:34:39.116Z,6.93
2018-07-07T05:37:07.620Z,7.37
2018-07-07T05:39:36.006Z,7.57
2018-07-07T05:42:04.889Z,7.93
2018-07-07T05:44:33.412Z,7.57
2018-07-07T05:47:01.860Z,7.97
2018-07-07T05:49:30.272Z,8.07
2018-07-07T05:51:58.753Z,6.67
2018-07-07T05:54:27.162Z,5.40
2018-07-07T05:56:55.592Z,6.30
2018-07-07T05:59:24.052Z,6.50
2018-07-07T06:01:52.494Z,5.87
2018-07-07T06:04:20.927Z,4.70
2018-07-07T06:06:49.486Z,5.67
2018-07-07T06:09:17.974Z,6.10
2018-07-07T06:11:46.423Z,5.50
2018-07-07T06:14:14.902Z,5.43
2018-07-07T06:16:43.349Z,6.13
2018-07-07T06:19:11.823Z,5.70
2018-07-07T06:21:40.301Z,5.27
2018-07-07T06:24:08.805Z,5.40
2018-07-07T06:26:37.256Z,6.60
2018-07-07T06:29:06.222Z,5.60
2018-07-07T06:31:34.661Z,4.30
2018-07-07T06:34:03.133Z,4.83
2018-07-07T06:36:31.641Z,3.73
2018-07-07T06:39:00.062Z,5.50
2018-07-07T06:41:28.536Z,4.27
2018-07-07T06:43:57.028Z,5.10
2018-07-07T06:46:25.465Z,5.77
2018-07-07T06:48:53.889Z,4.40
2018-07-07T06:51:22.381Z,4.50
2018-07-07T06:53:50.913Z,5.53
2018-07-07T06:56:19.322Z,5.10
2018-07-07T06:58:47.825Z,5.50
2018-07-07T07:01:16.257Z,4.27
2018-07-07T07:03:44.706Z,4.97
2018-07-07T07:06:13.213Z,4.30
2018-07-07T07:08:41.672Z,4.90
2018-07-07T07:11:10.133Z,4.20
2018-07-07T07:13:38.594Z,4.57
2018-07-07T07:16:07.121Z,4.20
2018-07-07T07:18:35.604Z,4.70
2018-07-07T07:21:04.144Z,4.40
2018-07-07T07:23:32.638Z,4.03
2018-07-07T07:26:01.137Z,4.63
2018-07-07T07:28:29.551Z,4.30
2018-07-07T07:30:58.079Z,5.70
2018-07-07T07:33:26.584Z,4.70
2018-07-07T07:35:55.473Z,5.07
2018-07-07T07:38:24.211Z,4.47
2018-07-07T07:40:52.710Z,3.70
2018-07-07T07:43:21.141Z,4.20
2018-07-07T07:45:49.601Z,4.07
2018-07-07T07:48:18.043Z,5.03
2018-07-07T07:50:46.509Z,3.53
2018-07-07T07:53:15.032Z,3.73
2018-07-07T07:55:43.499Z,3.77
2018-07-07T07:58:11.945Z,2.97
2018-07-07T08:00:40.418Z,2.83
2018-07-07T08:03:08.909Z,2.50
2018-07-07T08:05:37.371Z,2.67
2018-07-07T08:08:06.003Z,2.10
2018-07-07T08:10:34.489Z,3.00
2018-07-07T08:13:02.946Z,1.90
2018-07-07T08:15:31.380Z,2.30
2018-07-07T08:17:59.901Z,2.20
2018-07-07T08:20:28.345Z,1.93
2018-07-07T08:22:56.574Z,2.73
2018-07-07T08:25:24.993Z,2.33
2018-07-07T08:27:53.477Z,2.87
2018-07-07T08:30:21.925Z,2.30
2018-07-07T08:32:50.401Z,2.43
2018-07-07T08:35:18.990Z,2.67
2018-07-07T08:37:47.462Z,2.27
2018-07-07T08:40:15.940Z,3.00
2018-07-07T08:42:44.671Z,2.50
2018-07-07T08:45:12.787Z,2.87
2018-07-07T08:47:41.237Z,2.10
2018-07-07T08:50:09.748Z,2.30
2018-07-07T08:52:38.187Z,2.40
2018-07-07T08:55:06.674Z,2.90
2018-07-07T08:57:35.145Z,3.40
2018-07-07T09:00:03.685Z,2.93
2018-07-07T09:02:32.121Z,3.33
2018-07-07T09:05:00.589Z,3.17
2018-07-07T09:07:29.225Z,3.30
2018-07-07T09:09:57.689Z,3.20
2018-07-07T09:12:26.158Z,3.10
2018-07-07T09:14:54.680Z,3.17
2018-07-07T09:17:22.808Z,2.87
2018-07-07T09:19:51.281Z,2.70
2018-07-07T09:22:19.730Z,3.63
2018-07-07T09:24:48.229Z,3.10
2018-07-07T09:27:16.672Z,3.00
2018-07-07T09:29:45.123Z,2.67
2018-07-07T09:32:13.572Z,2.93
2018-07-07T09:34:42.064Z,2.70
2018-07-07T09:37:10.544Z,2.70
2018-07-07T09:39:38.997Z,2.97
2018-07-07T09:42:07.425Z,2.17
2018-07-07T09:44:35.856Z,2.40
2018-07-07T09:47:04.349Z,2.10
2018-07-07T09:49:32.791Z,2.83
2018-07-07T09:52:01.265Z,2.43
2018-07-07T09:54:29.732Z,1.97
2018-07-07T09:56:58.181Z,2.40
2018-07-07T09:59:26.609Z,3.00
2018-07-07T10:01:55.166Z,2.80
2018-07-07T10:04:23.574Z,2.20
2018-07-07T10:06:52.027Z,2.47
2018-07-07T10:09:20.551Z,2.53
2018-07-07T10:11:49.010Z,2.57
2018-07-07T10:14:17.449Z,2.63
2018-07-07T10:16:45.909Z,2.10
2018-07-07T10:19:14.393Z,1.90
2018-07-07T10:21:42.885Z,2.27
2018-07-07T10:24:11.356Z,2.47
2018-07-07T10:26:39.824Z,3.43
2018-07-07T10:29:08.290Z,3.37
2018-07-07T10:31:36.761Z,2.00
2018-07-07T10:34:05.330Z,2.50
2018-07-07T10:36:33.782Z,2.37
2018-07-07T10:39:02.310Z,2.50
2018-07-07T10:41:30.750Z,2.60
2018-07-07T10:43:59.213Z,2.30
2018-07-07T10:46:27.650Z,2.83
2018-07-07T10:48:56.168Z,1.77
2018-07-07T10:51:24.641Z,2.47
2018-07-07T10:53:53.085Z,2.30
2018-07-07T10:56:21.569Z,2.50
2018-07-07T10:58:50.137Z,4.30
2018-07-07T11:01:18.576Z,2.50
2018-07-07T11:03:47.060Z,2.20
2018-07-07T11:06:15.555Z,2.40
2018-07-07T11:08:44.385Z,2.33
2018-07-07T11:11:12.830Z,2.30
2018-07-07T11:13:41.263Z,3.13
2018-07-07T11:16:09.712Z,2.37
2018-07-07T11:18:38.152Z,2.80
2018-07-07T11:21:06.652Z,2.47
2018-07-07T11:23:35.126Z,2.13
2018-07-07T11:26:03.645Z,2.60
2018-07-07T11:28:32.118Z,2.60
2018-07-07T11:31:00.570Z,2.33
2018-07-07T11:33:28.985Z,2.10
2018-07-07T11:35:57.536Z,3.13
2018-07-07T11:38:25.992Z,2.10
2018-07-07T11:40:54.540Z,3.07
2018-07-07T11:43:23.020Z,2.50
2018-07-07T11:45:51.534Z,2.30
2018-07-07T11:48:20.034Z,2.93
2018-07-07T11:50:48.466Z,2.33
2018-07-07T11:53:16.972Z,2.40
2018-07-07T11:55:45.450Z,2.70
2018-07-07T11:58:13.644Z,2.60
2018-07-07T12:00:42.090Z,2.20
2018-07-07T12:03:17.264Z,2.33
2018-07-07T12:05:45.738Z,3.13
2018-07-07T12:08:14.469Z,3.40
2018-07-07T12:10:42.769Z,2.40
2018-07-07T12:13:11.234Z,2.77
2018-07-07T12:15:39.688Z,2.87
2018-07-07T12:18:08.187Z,3.00
2018-07-07T12:20:36.645Z,3.10
2018-07-07T12:23:05.147Z,2.87
2018-07-07T12:25:33.582Z,2.30
2018-07-07T12:28:02.057Z,3.50
2018-07-07T12:30:30.552Z,2.97
2018-07-07T12:32:59.098Z,3.27
2018-07-07T12:35:27.593Z,3.27
2018-07-07T12:37:56.040Z,2.63
2018-07-07T12:40:24.549Z,3.57
2018-07-07T12:42:53.055Z,2.73
2018-07-07T12:45:21.535Z,3.60
2018-07-07T12:47:49.967Z,3.33
2018-07-07T12:50:18.441Z,2.60
2018-07-07T12:52:46.900Z,4.30
2018-07-07T12:55:15.364Z,2.60
2018-07-07T12:57:43.822Z,3.60
2018-07-07T13:00:12.294Z,1.50
2018-07-07T13:02:40.738Z,3.10
2018-07-07T13:05:09.260Z,2.63
2018-07-07T13:07:37.724Z,2.37
2018-07-07T13:10:06.246Z,2.40
2018-07-07T13:12:34.716Z,2.60
2018-07-07T13:15:03.269Z,2.70
2018-07-07T13:17:31.718Z,2.80
2018-07-07T13:20:00.150Z,3.67
2018-07-07T13:22:28.616Z,2.80
2018-07-07T13:24:57.064Z,2.73
2018-07-07T13:27:25.519Z,2.20
2018-07-07T13:29:53.676Z,2.93
2018-07-07T13:32:22.160Z,2.70
2018-07-07T13:34:50.612Z,2.37
2018-07-07T13:37:19.104Z,2.10
2018-07-07T13:39:47.647Z,2.10
2018-07-07T13:42:16.150Z,3.17
2018-07-07T13:44:44.602Z,1.93
2018-07-07T13:47:13.067Z,1.83
2018-07-07T13:49:41.568Z,2.43
2018-07-07T13:52:10.042Z,2.13
2018-07-07T13:54:38.537Z,3.10
2018-07-07T13:57:07.285Z,2.60
2018-07-07T13:59:35.789Z,2.80
2018-07-07T14:02:04.245Z,2.53
2018-07-07T14:04:32.701Z,2.97
2018-07-07T14:07:01.196Z,2.63
2018-07-07T14:09:29.710Z,3.67
2018-07-07T14:11:58.181Z,3.10
2018-07-07T14:14:26.670Z,2.70
2018-07-07T14:16:55.239Z,2.33
2018-07-07T14:19:23.664Z,2.47
2018-07-07T14:21:52.138Z,2.20
2018-07-07T14:24:20.602Z,2.47
2018-07-07T14:26:49.086Z,2.77
2018-07-07T14:29:17.560Z,2.50
2018-07-07T14:31:46.054Z,2.80
2018-07-07T14:34:14.518Z,2.93
2018-07-07T14:36:42.993Z,2.20
2018-07-07T14:39:11.459Z,2.40
2018-07-07T14:41:39.897Z,2.97
2018-07-07T14:44:08.342Z,3.23
2018-07-07T14:46:36.796Z,2.40
2018-07-07T14:49:05.617Z,2.73
2018-07-07T14:51:34.104Z,2.63
2018-07-07T14:54:02.578Z,3.77
2018-07-07T14:56:31.123Z,2.43
2018-07-07T14:58:59.570Z,2.20
2018-07-07T15:01:28.023Z,2.63
2018-07-07T15:04:00.677Z,2.47
2018-07-07T15:06:29.238Z,3.10
2018-07-07T15:08:57.711Z,2.57
2018-07-07T15:11:26.167Z,3.17
2018-07-07T15:13:54.670Z,2.60
2018-07-07T15:16:23.118Z,2.90
2018-07-07T15:18:51.648Z,2.93
2018-07-07T15:21:20.132Z,3.00
2018-07-07T15:23:48.700Z,2.27
2018-07-07T15:26:17.152Z,2.63
2018-07-07T15:28:45.615Z,3.00
2018-07-07T15:31:14.077Z,1.80
2018-07-07T15:33:43.421Z,2.47
2018-07-07T15:36:11.853Z,3.00
2018-07-07T15:38:40.313Z,2.43
2018-07-07T15:41:08.753Z,2.50
2018-07-07T15:43:37.264Z,3.80
2018-07-07T15:46:05.808Z,2.30
2018-07-07T15:48:33.913Z,2.67
2018-07-07T15:51:02.379Z,2.50
2018-07-07T15:53:30.822Z,2.50
2018-07-07T15:55:59.322Z,3.37
2018-07-07T15:58:27.769Z,2.50
2018-07-07T16:00:56.259Z,2.70
2018-07-07T16:03:24.719Z,2.67
2018-07-07T16:05:53.501Z,2.27
2018-07-07T16:08:21.949Z,2.33
2018-07-07T16:10:50.526Z,2.70
2018-07-07T16:13:18.948Z,2.87
2018-07-07T16:15:47.393Z,2.73
2018-07-07T16:18:15.809Z,2.30
2018-07-07T16:20:44.285Z,3.17
2018-07-07T16:23:12.709Z,2.60
2018-07-07T16:25:41.146Z,3.13
2018-07-07T16:28:09.602Z,2.93
2018-07-07T16:30:38.018Z,2.80
2018-07-07T16:33:06.488Z,2.53
2018-07-07T16:35:34.938Z,3.30
2018-07-07T16:38:03.433Z,2.67
2018-07-07T16:40:32.684Z,2.37
2018-07-07T16:43:01.183Z,2.80
2018-07-07T16:45:29.702Z,3.00
2018-07-07T16:47:58.226Z,2.87
2018-07-07T16:50:26.953Z,2.87
2018-07-07T16:52:55.495Z,2.90
2018-07-07T16:55:24.020Z,2.90
2018-07-07T16:57:52.633Z,2.20
2018-07-07T17:00:21.131Z,3.03
2018-07-07T17:02:50.417Z,2.87
2018-07-07T17:05:18.888Z,2.83
2018-07-07T17:07:48.281Z,3.00
2018-07-07T17:10:17.360Z,2.90
2018-07-07T17:12:45.864Z,3.70
2018-07-07T17:15:14.337Z,2.83
2018-07-07T17:17:42.869Z,3.40
2018-07-07T17:20:11.401Z,2.80
2018-07-07T17:22:39.916Z,3.00
2018-07-07T17:25:08.429Z,2.77
2018-07-07T17:40:52.468Z,3.30
2018-07-07T17:43:20.997Z,3.87
2018-07-07T17:45:50.900Z,4.60
2018-07-07T17:48:19.442Z,3.53
2018-07-07T17:50:47.994Z,3.67
2018-07-07T17:53:17.301Z,5.00
2018-07-07T17:55:45.840Z,2.70
2018-07-07T17:58:14.325Z,3.10
2018-07-07T18:00:43.500Z,3.50
2018-07-07T18:03:12.058Z,2.83
2018-07-07T18:05:40.836Z,3.03
2018-07-07T18:08:09.346Z,3.00
2018-07-07T18:10:38.222Z,3.27
2018-07-07T18:13:07.085Z,3.27
2018-07-07T18:15:35.650Z,3.00
2018-07-07T18:18:04.137Z,3.30
2018-07-07T18:20:32.693Z,3.33
2018-07-07T18:23:01.190Z,3.20
2018-07-07T18:25:29.633Z,2.63
2018-07-07T18:27:58.070Z,2.53
2018-07-07T18:30:26.568Z,3.37
2018-07-07T18:32:55.138Z,3.20
2018-07-07T18:35:23.811Z,3.63
2018-07-07T18:37:52.331Z,3.07
2018-07-07T18:40:20.776Z,3.03
2018-07-07T18:42:49.273Z,3.30
2018-07-07T18:45:17.742Z,3.00
2018-07-07T18:47:46.245Z,3.40
2018-07-07T18:50:14.751Z,4.60
2018-07-07T18:52:43.268Z,3.10
2018-07-07T18:55:11.742Z,4.20
2018-07-07T18:57:40.253Z,4.00
2018-07-07T19:00:08.413Z,3.30
2018-07-07T19:02:37.174Z,3.03
2018-07-07T19:05:05.678Z,3.17
2018-07-07T19:07:34.165Z,3.30
2018-07-07T19:10:02.644Z,3.20
2018-07-07T19:12:31.106Z,2.80
2018-07-07T19:15:05.239Z,3.03
2018-07-07T19:17:33.982Z,2.77
2018-07-07T19:20:02.484Z,3.63
2018-07-07T19:22:36.265Z,3.37
2018-07-07T19:25:10.210Z,2.83
2018-07-07T19:27:38.670Z,2.93
2018-07-07T19:30:07.194Z,3.00
2018-07-07T19:33:41.841Z,2.83
2018-07-07T19:36:15.840Z,2.70
2018-07-07T19:38:44.959Z,3.87
2018-07-07T19:41:13.521Z,3.80
2018-07-07T19:43:42.037Z,3.37
2018-07-07T19:46:10.568Z,3.83
2018-07-07T19:48:39.134Z,2.93
2018-07-07T19:51:07.729Z,3.20
2018-07-07T19:53:36.248Z,3.43
2018-07-07T19:56:04.741Z,3.50
2018-07-07T19:58:33.246Z,3.53
2018-07-07T20:01:01.742Z,3.60
2018-07-07T20:03:30.269Z,4.10
2018-07-07T20:05:58.755Z,2.40
2018-07-07T20:08:27.288Z,2.87
2018-07-07T20:10:55.786Z,3.50
2018-07-07T20:13:24.421Z,3.60
2018-07-07T20:16:14.332Z,3.23
2018-07-07T20:19:11.177Z,3.67
2018-07-07T20:22:00.489Z,3.40
2018-07-07T20:24:33.016Z,2.83
2018-07-07T20:27:06.773Z,3.10
2018-07-07T20:29:35.253Z,2.27
2018-07-07T20:32:08.071Z,3.30
2018-07-07T20:34:36.696Z,3.10
2018-07-07T20:37:05.318Z,3.47
2018-07-07T20:39:33.946Z,2.90
2018-07-07T20:42:02.489Z,2.83
2018-07-07T20:44:31.013Z,4.53
2018-07-07T20:46:59.488Z,3.43
2018-07-07T20:49:28.119Z,3.50
2018-07-07T20:51:56.937Z,2.93
2018-07-07T20:54:25.087Z,4.50
2018-07-07T20:56:53.604Z,4.50
2018-07-07T20:59:22.092Z,4.33
2018-07-07T21:01:50.658Z,4.13
2018-07-07T21:04:19.085Z,4.20
2018-07-07T21:06:49.337Z,4.10
2018-07-07T21:09:18.865Z,5.10
2018-07-07T21:11:47.709Z,5.03
2018-07-07T21:14:16.210Z,4.30
2018-07-07T21:16:44.770Z,4.53
2018-07-07T21:19:13.262Z,3.97
2018-07-07T21:21:41.834Z,5.13
2018-07-07T21:24:10.384Z,5.33
2018-07-07T21:26:38.990Z,5.67
2018-07-07T21:29:07.517Z,5.53
2018-07-07T21:31:36.038Z,5.70
2018-07-07T21:34:04.555Z,4.53
2018-07-07T21:36:33.042Z,5.23
2018-07-07T21:39:01.562Z,5.47
2018-07-07T21:41:30.038Z,4.87
2018-07-07T21:43:58.577Z,5.77
2018-07-07T21:46:27.140Z,5.57
2018-07-07T21:48:55.674Z,5.33
2018-07-07T21:51:24.206Z,6.07
2018-07-07T21:53:52.880Z,5.20
2018-07-07T21:56:21.250Z,4.03
2018-07-07T21:58:54.025Z,4.53
2018-07-07T22:01:59.745Z,4.00
2018-07-07T22:04:35.514Z,4.40
2018-07-07T22:07:11.947Z,3.83
2018-07-07T22:09:40.764Z,4.03
2018-07-07T22:12:09.263Z,3.90
2018-07-07T22:14:39.018Z,4.60
2018-07-07T22:17:07.581Z,4.83
2018-07-07T22:19:36.115Z,3.40
2018-07-07T22:22:06.800Z,3.53
2018-07-07T22:24:35.744Z,3.20
2018-07-07T22:27:06.556Z,2.97
2018-07-07T22:29:35.054Z,3.57
2018-07-07T22:32:12.529Z,3.53
2018-07-07T22:34:41.128Z,4.67
2018-07-07T22:37:09.811Z,3.00
2018-07-07T22:39:39.666Z,4.47
2018-07-07T22:42:09.467Z,3.50
2018-07-07T22:44:38.829Z,4.53
2018-07-07T22:47:07.439Z,4.17
2018-07-07T22:49:36.040Z,3.33
2018-07-07T22:52:06.412Z,3.60
2018-07-07T22:54:35.423Z,4.33
2018-07-07T22:57:03.965Z,4.57
2018-07-07T22:59:32.450Z,3.03
2018-07-07T23:02:01.009Z,2.87
2018-07-07T23:04:29.696Z,3.27
2018-07-07T23:06:59.363Z,3.90
2018-07-07T23:09:27.822Z,3.40
2018-07-07T23:11:56.306Z,3.23
2018-07-07T23:14:24.802Z,4.40
2018-07-07T23:16:57.197Z,3.57
2018-07-07T23:19:25.677Z,3.80
2018-07-07T23:21:54.161Z,4.20
2018-07-07T23:24:22.648Z,4.13
2018-07-07T23:26:51.533Z,4.50
2018-07-07T23:29:20.013Z,3.67
2018-07-07T23:31:48.561Z,4.80
2018-07-07T23:34:17.068Z,4.27
2018-07-07T23:36:45.628Z,3.47
2018-07-07T23:39:14.125Z,3.70
2018-07-07T23:41:42.701Z,3.67
2018-07-07T23:44:11.157Z,4.40
2018-07-07T23:46:39.590Z,4.63
2018-07-07T23:49:08.125Z,4.53
2018-07-07T23:51:36.634Z,4.03
2018-07-07T23:54:05.595Z,4.70
2018-07-07T23:56:34.116Z,4.33
2018-07-07T23:59:02.547Z,3.73
